createdAt,value
2023-01-30T00:05:36.824Z,89.93
2023-01-30T00:11:38.697Z,88.93
2023-01-30T00:17:40.568Z,88.76
2023-01-30T00:23:43.104Z,88.04
2023-01-30T00:29:57.586Z,88.65
2023-01-30T00:36:03.786Z,89.35
2023-01-30T00:42:24.661Z,89.28
2023-01-30T00:48:26.955Z,88.59
2023-01-30T00:54:28.901Z,89.10
2023-01-30T01:00:31.297Z,88.92
2023-01-30T01:06:33.253Z,88.60
2023-01-30T01:12:35.139Z,88.54
2023-01-30T01:18:37.123Z,88.83
2023-01-30T01:24:39.149Z,88.10
2023-01-30T01:30:41.025Z,88.58
2023-01-30T01:36:53.255Z,88.32
2023-01-30T01:42:55.998Z,88.85
2023-01-30T01:49:03.040Z,88.44
2023-01-30T01:55:07.553Z,88.58
2023-01-30T02:01:09.735Z,88.71
2023-01-30T02:07:11.746Z,89.06
2023-01-30T02:13:13.668Z,88.84
2023-01-30T02:19:54.373Z,89.19
2023-01-30T02:26:28.664Z,88.88
2023-01-30T02:32:44.829Z,89.21
2023-01-30T02:38:59.809Z,90.00
2023-01-30T02:45:15.752Z,90.62
2023-01-30T02:51:29.940Z,91.86
2023-01-30T02:57:31.819Z,92.88
2023-01-30T03:04:27.518Z,95.00
2023-01-30T03:11:01.199Z,96.94
2023-01-30T03:17:06.479Z,98.39
2023-01-30T03:23:08.774Z,99.22
2023-01-30T03:29:10.719Z,99.56
2023-01-30T03:35:13.033Z,100.00
2023-01-30T03:41:15.307Z,100.00
2023-01-30T03:47:17.224Z,100.00
2023-01-30T03:53:19.157Z,100.00
2023-01-30T03:59:21.090Z,100.00
2023-01-30T04:05:23.755Z,100.00
2023-01-30T04:11:25.689Z,100.00
2023-01-30T04:17:27.561Z,100.00
2023-01-30T04:23:29.478Z,100.00
2023-01-30T04:29:31.365Z,100.00
2023-01-30T04:35:33.235Z,100.00
2023-01-30T04:41:35.167Z,100.00
2023-01-30T04:47:37.073Z,100.00
2023-01-30T04:53:39.070Z,100.00
2023-01-30T04:59:41.032Z,100.00
2023-01-30T05:05:45.891Z,100.00
2023-01-30T05:11:47.761Z,100.00
2023-01-30T05:17:49.621Z,100.00
2023-01-30T05:23:53.295Z,100.00
2023-01-30T05:29:55.172Z,100.00
2023-01-30T05:35:57.117Z,100.00
2023-01-30T05:41:59.107Z,100.00
2023-01-30T05:48:01.696Z,100.00
2023-01-30T05:54:03.860Z,100.00
2023-01-30T06:00:06.874Z,100.00
2023-01-30T06:06:10.179Z,100.00
2023-01-30T06:12:12.115Z,100.00
2023-01-30T06:18:14.002Z,100.00
2023-01-30T06:24:15.999Z,100.00
2023-01-30T06:30:18.264Z,100.00
2023-01-30T06:36:20.178Z,100.00
2023-01-30T06:42:22.064Z,100.00
2023-01-30T06:48:23.948Z,100.00
2023-01-30T06:54:25.855Z,100.00
2023-01-30T07:00:27.740Z,100.00
2023-01-30T07:06:29.640Z,100.00
2023-01-30T07:12:31.585Z,100.00
2023-01-30T07:18:33.458Z,100.00
2023-01-30T07:24:35.379Z,100.00
2023-01-30T07:30:37.362Z,100.00
2023-01-30T07:36:39.337Z,100.00
2023-01-30T07:42:41.636Z,100.00
2023-01-30T07:48:45.393Z,100.00
2023-01-30T07:54:47.308Z,100.00
2023-01-30T08:00:49.221Z,100.00
2023-01-30T08:06:51.409Z,100.00
2023-01-30T08:12:53.311Z,100.00
2023-01-30T08:18:55.294Z,100.00
2023-01-30T08:24:57.201Z,100.00
2023-01-30T08:30:59.203Z,100.00
2023-01-30T08:37:01.341Z,100.00
2023-01-30T08:43:04.126Z,100.00
2023-01-30T08:49:06.286Z,100.00
2023-01-30T08:55:09.540Z,100.00
2023-01-30T09:01:11.880Z,100.00
2023-01-30T09:07:13.809Z,95.80
2023-01-30T09:13:15.749Z,93.15
2023-01-30T09:19:17.633Z,93.00
2023-01-30T09:25:19.545Z,93.56
2023-01-30T09:31:21.537Z,89.57
2023-01-30T09:37:23.530Z,88.51
2023-01-30T09:43:51.228Z,86.24
2023-01-30T09:50:23.698Z,86.15
2023-01-30T09:56:26.197Z,86.87
2023-01-30T10:02:39.364Z,87.65
2023-01-30T10:09:07.221Z,86.52
2023-01-30T10:15:23.069Z,87.70
2023-01-30T10:21:43.418Z,91.01
2023-01-30T10:27:57.175Z,96.64
2023-01-30T10:34:09.435Z,99.78
2023-01-30T10:40:42.749Z,99.91
2023-01-30T10:47:03.405Z,100.00
2023-01-30T10:54:02.201Z,99.86
2023-01-30T11:00:16.849Z,98.82
2023-01-30T11:06:29.339Z,97.51
2023-01-30T11:12:31.466Z,98.40
2023-01-30T11:25:20.386Z,100.00
2023-01-30T11:31:40.454Z,100.00
2023-01-30T11:37:45.027Z,100.00
2023-01-30T11:43:48.325Z,100.00
2023-01-30T11:50:00.262Z,95.36
2023-01-30T11:56:23.068Z,91.28
2023-01-30T12:02:34.327Z,92.42
2023-01-30T12:08:43.037Z,93.95
2023-01-30T12:14:49.386Z,93.27
2023-01-30T12:21:01.054Z,93.53
2023-01-30T12:27:25.478Z,94.53
2023-01-30T12:33:33.289Z,91.85
2023-01-30T12:39:59.743Z,88.17
2023-01-30T12:46:12.856Z,87.97
2023-01-30T12:52:56.306Z,86.06
2023-01-30T12:59:52.806Z,86.55
2023-01-30T13:06:39.831Z,88.26
2023-01-30T13:13:42.339Z,89.69
2023-01-30T13:20:05.371Z,91.80
2023-01-30T13:26:42.440Z,93.54
2023-01-30T13:33:05.461Z,93.37
2023-01-30T13:39:42.581Z,96.26
2023-01-30T13:45:47.199Z,98.52
2023-01-30T13:51:54.229Z,96.41
2023-01-30T13:58:10.459Z,90.65
2023-01-30T14:04:40.184Z,89.91
2023-01-30T14:10:42.146Z,91.05
2023-01-30T14:16:51.385Z,89.94
2023-01-30T14:23:00.502Z,89.57
2023-01-30T14:29:02.396Z,88.60
2023-01-30T14:35:04.259Z,90.23
2023-01-30T14:41:06.860Z,90.67
2023-01-30T14:47:34.572Z,88.72
2023-01-30T14:53:55.325Z,89.89
2023-01-30T15:00:18.401Z,89.35
2023-01-30T15:06:21.155Z,88.56
2023-01-30T15:12:50.752Z,88.38
2023-01-30T15:19:40.725Z,87.56
2023-01-30T15:26:14.280Z,86.09
2023-01-30T15:32:23.076Z,87.32
2023-01-30T15:38:27.021Z,86.48
2023-01-30T15:45:02.887Z,86.72
2023-01-30T15:51:05.170Z,84.95
2023-01-30T15:57:11.818Z,83.28
2023-01-30T16:03:35.242Z,84.26
2023-01-30T16:09:37.133Z,86.93
2023-01-30T16:15:48.451Z,86.74
2023-01-30T16:21:50.411Z,86.47
2023-01-30T16:27:53.682Z,87.16
2023-01-30T16:33:55.591Z,87.31
2023-01-30T16:40:31.869Z,88.98
2023-01-30T16:46:47.366Z,89.01
2023-01-30T16:52:54.835Z,88.98
2023-01-30T16:59:00.459Z,90.46
2023-01-30T17:05:21.828Z,90.11
2023-01-30T17:11:41.554Z,90.72
2023-01-30T17:17:44.581Z,91.54
2023-01-30T17:24:05.274Z,91.59
2023-01-30T17:30:18.739Z,92.41
2023-01-30T17:36:30.101Z,93.15
2023-01-30T17:42:31.989Z,92.60
2023-01-30T17:48:33.866Z,92.32
2023-01-30T17:54:35.799Z,92.76
2023-01-30T18:00:37.701Z,94.16
2023-01-30T18:06:43.122Z,93.44
2023-01-30T18:12:47.916Z,92.93
2023-01-30T18:18:50.310Z,91.57
2023-01-30T18:24:52.213Z,91.10
2023-01-30T18:30:54.149Z,88.99
2023-01-30T18:36:56.069Z,87.75
2023-01-30T18:42:58.133Z,86.01
2023-01-30T18:49:00.247Z,86.30
2023-01-30T18:55:02.251Z,85.55
2023-01-30T19:01:17.899Z,86.49
2023-01-30T19:07:19.846Z,87.57
2023-01-30T19:13:33.949Z,89.32
2023-01-30T19:19:37.081Z,93.08
2023-01-30T19:25:38.981Z,94.33
2023-01-30T19:31:41.692Z,95.10
2023-01-30T19:37:43.702Z,95.40
2023-01-30T19:43:46.161Z,94.64
2023-01-30T19:49:48.288Z,93.80
2023-01-30T19:55:51.625Z,95.34
2023-01-30T20:01:53.621Z,95.75
2023-01-30T20:07:55.594Z,95.42
2023-01-30T20:13:58.787Z,94.14
2023-01-30T20:20:09.696Z,94.54
2023-01-30T20:26:19.661Z,95.49
2023-01-30T20:32:21.680Z,94.08
2023-01-30T20:38:23.569Z,93.85
2023-01-30T20:44:25.863Z,92.11
2023-01-30T20:50:28.277Z,91.21
2023-01-30T20:56:45.888Z,90.92
2023-01-30T21:02:51.620Z,87.93
2023-01-30T21:08:53.565Z,87.64
2023-01-30T21:14:55.451Z,88.69
2023-01-30T21:20:57.477Z,92.22
2023-01-30T21:26:59.405Z,94.37
2023-01-30T21:33:01.298Z,94.74
2023-01-30T21:39:22.660Z,94.57
2023-01-30T21:45:24.678Z,93.75
2023-01-30T21:51:26.624Z,93.06
2023-01-30T21:57:28.560Z,92.56
2023-01-30T22:03:30.572Z,93.27
2023-01-30T22:09:32.466Z,93.81
2023-01-30T22:15:34.432Z,94.04
2023-01-30T22:21:40.130Z,94.04
2023-01-30T22:27:42.203Z,94.46
2023-01-30T22:33:51.164Z,93.53
2023-01-30T22:39:53.036Z,92.10
2023-01-30T22:46:04.000Z,91.60
2023-01-30T22:52:05.910Z,91.40
2023-01-30T22:58:07.777Z,91.32
2023-01-30T23:04:22.418Z,91.32
2023-01-30T23:10:24.373Z,91.89
2023-01-30T23:16:28.112Z,91.54
2023-01-30T23:22:30.077Z,92.41
2023-01-30T23:28:32.385Z,93.74
2023-01-30T23:34:34.376Z,94.21
2023-01-30T23:40:36.523Z,95.47
2023-01-30T23:46:42.060Z,95.92
2023-01-30T23:52:44.602Z,94.78
2023-01-30T23:58:47.124Z,94.30
